createdAt,value
2018-04-19T00:01:48.527Z,67.53
2018-04-19T00:04:19.478Z,67.72
2018-04-19T00:06:50.431Z,68.03
2018-04-19T00:09:21.465Z,67.94
2018-04-19T00:11:52.497Z,68.04
2018-04-19T00:14:23.595Z,68.21
2018-04-19T00:16:54.632Z,67.94
2018-04-19T00:19:25.615Z,68.28
2018-04-19T00:21:56.346Z,68.41
2018-04-19T00:24:27.478Z,68.35
2018-04-19T00:26:58.405Z,68.39
2018-04-19T00:29:28.234Z,68.33
2018-04-19T00:31:59.293Z,68.49
2018-04-19T00:34:30.398Z,68.47
2018-04-19T00:37:01.366Z,68.46
2018-04-19T00:39:34.607Z,68.61
2018-04-19T00:42:03.654Z,68.72
2018-04-19T00:44:34.431Z,68.62
2018-04-19T00:47:05.350Z,68.84
2018-04-19T00:49:36.418Z,68.67
2018-04-19T00:52:06.928Z,68.86
2018-04-19T00:54:37.682Z,68.96
2018-04-19T00:57:08.430Z,69.06
2018-04-19T00:59:39.370Z,69.33
2018-04-19T01:02:10.406Z,69.53
2018-04-19T01:04:41.442Z,69.59
2018-04-19T01:07:12.278Z,69.56
2018-04-19T01:09:43.314Z,69.37
2018-04-19T01:12:14.388Z,69.32
2018-04-19T01:14:45.373Z,69.27
2018-04-19T01:17:16.379Z,69.43
2018-04-19T01:19:47.435Z,69.26
2018-04-19T01:22:18.454Z,69.31
2018-04-19T01:24:49.270Z,69.12
2018-04-19T01:27:20.366Z,69.09
2018-04-19T01:29:51.467Z,69.09
2018-04-19T01:32:22.331Z,68.85
2018-04-19T01:34:53.394Z,68.64
2018-04-19T01:37:24.446Z,68.75
2018-04-19T01:39:55.385Z,68.97
2018-04-19T01:42:27.027Z,69.28
2018-04-19T01:44:57.784Z,69.53
2018-04-19T01:47:28.406Z,69.87
2018-04-19T01:49:59.514Z,69.60
2018-04-19T01:52:30.031Z,69.30
2018-04-19T01:55:00.653Z,69.06
2018-04-19T01:57:31.433Z,68.77
2018-04-19T02:00:02.578Z,69.14
2018-04-19T02:02:33.422Z,69.42
2018-04-19T02:05:04.054Z,69.48
2018-04-19T02:07:34.783Z,69.33
2018-04-19T02:10:05.512Z,69.32
2018-04-19T02:12:37.854Z,69.44
2018-04-19T02:15:07.792Z,69.53
2018-04-19T02:17:38.434Z,69.93
2018-04-19T02:20:09.682Z,69.82
2018-04-19T02:22:40.358Z,70.06
2018-04-19T02:25:11.052Z,69.83
2018-04-19T02:27:41.779Z,69.85
2018-04-19T02:30:12.490Z,69.80
2018-04-19T02:32:43.451Z,69.74
2018-04-19T02:35:14.404Z,69.66
2018-04-19T02:37:45.386Z,69.61
2018-04-19T02:40:16.499Z,69.51
2018-04-19T02:42:47.538Z,69.53
2018-04-19T02:45:18.525Z,69.52
2018-04-19T02:47:49.507Z,69.45
2018-04-19T02:50:20.575Z,69.53
2018-04-19T02:52:51.333Z,69.84
2018-04-19T02:55:22.385Z,70.03
2018-04-19T02:57:53.267Z,70.59
2018-04-19T03:00:24.363Z,70.12
2018-04-19T03:02:55.378Z,69.90
2018-04-19T03:05:26.119Z,69.96
2018-04-19T03:07:56.814Z,70.21
2018-04-19T03:10:27.526Z,70.14
2018-04-19T03:12:58.580Z,69.88
2018-04-19T03:15:29.423Z,69.80
2018-04-19T03:18:00.062Z,69.85
2018-04-19T03:20:30.738Z,69.90
2018-04-19T03:23:01.367Z,70.23
2018-04-19T03:25:32.481Z,70.71
2018-04-19T03:28:02.539Z,70.71
2018-04-19T03:30:34.199Z,70.56
2018-04-19T03:33:04.557Z,70.30
2018-04-19T03:35:35.291Z,70.16
2018-04-19T03:38:06.431Z,70.15
2018-04-19T03:40:37.388Z,70.78
2018-04-19T03:43:08.278Z,71.07
2018-04-19T03:45:39.338Z,71.17
2018-04-19T03:48:10.503Z,71.77
2018-04-19T03:50:41.403Z,72.20
2018-04-19T03:53:12.138Z,71.80
2018-04-19T03:55:43.211Z,71.92
2018-04-19T03:58:14.198Z,71.99
2018-04-19T04:00:45.270Z,72.11
2018-04-19T04:03:16.288Z,71.72
2018-04-19T04:05:47.383Z,71.43
2018-04-19T04:08:19.004Z,71.43
2018-04-19T04:10:48.813Z,71.40
2018-04-19T04:13:19.417Z,71.55
2018-04-19T04:15:56.275Z,71.60
2018-04-19T04:18:36.654Z,71.68
2018-04-19T04:21:19.212Z,71.59
2018-04-19T04:23:54.865Z,71.65
2018-04-19T04:26:24.198Z,71.64
2018-04-19T04:28:53.255Z,71.57
2018-04-19T04:31:22.328Z,71.53
2018-04-19T04:33:51.541Z,71.45
2018-04-19T04:36:20.862Z,71.92
2018-04-19T04:38:50.186Z,72.07
2018-04-19T04:41:19.298Z,72.44
2018-04-19T04:43:48.578Z,72.58
2018-04-19T04:46:21.050Z,72.65
2018-04-19T04:48:50.350Z,72.14
2018-04-19T04:51:19.363Z,72.05
2018-04-19T04:53:48.932Z,72.14
2018-04-19T04:56:17.895Z,72.41
2018-04-19T04:58:46.922Z,72.91
2018-04-19T05:01:15.937Z,73.44
2018-04-19T05:03:45.539Z,73.47
2018-04-19T05:06:15.243Z,73.18
2018-04-19T05:08:44.851Z,73.32
2018-04-19T05:11:13.891Z,73.51
2018-04-19T05:13:43.127Z,74.32
2018-04-19T05:16:13.985Z,74.12
2018-04-19T05:18:43.701Z,74.22
2018-04-19T05:21:14.815Z,74.49
2018-04-19T05:23:46.598Z,74.75
2018-04-19T05:26:17.134Z,74.89
2018-04-19T05:28:47.893Z,75.43
2018-04-19T05:31:17.963Z,76.51
2018-04-19T05:33:48.795Z,75.70
2018-04-19T05:36:19.472Z,75.27
2018-04-19T05:38:50.365Z,75.58
2018-04-19T05:41:21.376Z,74.68
2018-04-19T05:43:52.494Z,75.12
2018-04-19T05:46:23.197Z,74.78
2018-04-19T05:48:55.674Z,74.88
2018-04-19T05:51:25.559Z,74.99
2018-04-19T05:53:55.939Z,74.11
2018-04-19T05:56:26.969Z,74.39
2018-04-19T05:58:56.672Z,76.09
2018-04-19T06:01:27.528Z,75.33
2018-04-19T06:03:58.285Z,76.16
2018-04-19T06:06:29.386Z,74.87
2018-04-19T06:09:00.393Z,75.93
2018-04-19T06:11:29.933Z,74.43
2018-04-19T06:14:01.355Z,75.05
2018-04-19T06:16:32.583Z,75.06
2018-04-19T06:19:03.467Z,77.53
2018-04-19T06:21:34.456Z,76.90
2018-04-19T06:24:04.993Z,76.76
2018-04-19T06:26:35.876Z,76.12
2018-04-19T06:29:06.483Z,76.56
2018-04-19T06:31:37.410Z,75.79
2018-04-19T06:34:08.165Z,76.11
2018-04-19T06:36:38.922Z,76.11
2018-04-19T06:39:09.709Z,74.56
2018-04-19T06:41:40.478Z,73.95
2018-04-19T06:44:11.167Z,73.91
2018-04-19T06:46:41.741Z,73.16
2018-04-19T06:49:12.463Z,73.77
2018-04-19T06:51:43.496Z,73.82
2018-04-19T06:54:14.321Z,73.25
2018-04-19T06:56:45.290Z,72.81
2018-04-19T06:59:16.021Z,72.56
2018-04-19T07:01:46.854Z,71.70
2018-04-19T07:04:17.392Z,71.20
2018-04-19T07:06:48.564Z,71.10
2018-04-19T07:09:19.031Z,70.70
2018-04-19T07:11:51.018Z,70.19
2018-04-19T07:14:20.711Z,68.77
2018-04-19T07:16:51.450Z,67.97
2018-04-19T07:19:22.411Z,67.18
2018-04-19T07:21:55.335Z,66.60
2018-04-19T07:24:24.350Z,66.83
2018-04-19T07:26:55.094Z,66.55
2018-04-19T07:29:25.689Z,65.80
2018-04-19T07:31:56.706Z,64.06
2018-04-19T07:34:26.667Z,64.15
2018-04-19T07:36:56.146Z,64.12
2018-04-19T07:39:27.063Z,62.21
2018-04-19T07:41:57.703Z,60.94
2018-04-19T07:44:28.791Z,60.15
2018-04-19T07:46:59.700Z,60.76
2018-04-19T07:49:31.207Z,59.46
2018-04-19T07:52:02.199Z,58.79
2018-04-19T07:54:33.434Z,58.91
2018-04-19T07:57:04.564Z,59.32
2018-04-19T07:59:35.606Z,58.83
2018-04-19T08:02:06.334Z,57.40
2018-04-19T08:04:37.384Z,57.83
2018-04-19T08:07:07.976Z,57.15
2018-04-19T08:09:38.716Z,56.26
2018-04-19T08:12:09.254Z,56.90
2018-04-19T08:14:40.274Z,56.25
2018-04-19T08:17:11.380Z,56.46
2018-04-19T08:19:41.946Z,55.90
2018-04-19T08:22:12.362Z,55.89
2018-04-19T08:24:43.374Z,54.89
2018-04-19T08:27:14.313Z,54.75
2018-04-19T08:29:45.374Z,54.82
2018-04-19T08:32:16.285Z,53.91
2018-04-19T08:34:47.289Z,53.89
2018-04-19T08:37:18.328Z,53.29
2018-04-19T08:39:49.358Z,53.48
2018-04-19T08:42:20.321Z,53.09
2018-04-19T08:44:51.360Z,52.64
2018-04-19T08:47:22.599Z,52.37
2018-04-19T08:49:53.434Z,52.29
2018-04-19T08:52:24.390Z,53.27
2018-04-19T08:54:58.839Z,53.08
2018-04-19T08:57:28.066Z,52.88
2018-04-19T08:59:57.869Z,52.42
2018-04-19T09:02:28.478Z,52.17
2018-04-19T09:04:59.337Z,50.56
2018-04-19T09:07:30.339Z,51.05
2018-04-19T09:10:01.155Z,50.47
2018-04-19T09:12:31.922Z,49.42
2018-04-19T09:15:02.350Z,49.77
2018-04-19T09:17:32.250Z,48.88
2018-04-19T09:20:02.930Z,49.70
2018-04-19T09:22:33.724Z,49.62
2018-04-19T09:25:05.102Z,49.48
2018-04-19T09:27:36.170Z,48.44
2018-04-19T09:30:07.005Z,48.79
2018-04-19T09:32:38.082Z,48.33
2018-04-19T09:35:09.202Z,47.18
2018-04-19T09:40:30.812Z,46.42
2018-04-19T09:43:00.033Z,46.88
2018-04-19T09:45:29.286Z,46.70
2018-04-19T09:47:58.278Z,47.26
2018-04-19T09:50:27.303Z,45.07
2018-04-19T09:52:56.344Z,45.71
2018-04-19T09:55:25.499Z,45.22
2018-04-19T09:58:06.899Z,45.18
2018-04-19T10:00:41.638Z,44.15
2018-04-19T10:03:15.931Z,44.73
2018-04-19T10:05:48.200Z,44.36
2018-04-19T10:08:17.272Z,44.45
2018-04-19T10:10:46.238Z,44.39
2018-04-19T10:13:15.266Z,43.81
2018-04-19T10:15:44.202Z,43.96
2018-04-19T10:18:13.166Z,44.02
2018-04-19T10:20:42.242Z,43.65
2018-04-19T10:23:11.173Z,43.19
2018-04-19T10:25:40.199Z,42.87
2018-04-19T10:28:09.301Z,42.72
2018-04-19T10:30:38.371Z,42.86
2018-04-19T10:33:07.407Z,42.67
2018-04-19T10:35:36.431Z,42.22
2018-04-19T10:38:05.368Z,42.68
2018-04-19T10:40:34.465Z,41.93
2018-04-19T10:43:03.593Z,42.23
2018-04-19T10:45:33.597Z,41.60
2018-04-19T10:48:04.407Z,41.61
2018-04-19T10:50:35.322Z,41.14
2018-04-19T10:53:06.400Z,39.98
2018-04-19T10:55:38.302Z,41.40
2018-04-19T10:58:07.922Z,40.34
2018-04-19T11:00:40.276Z,38.94
2018-04-19T11:03:09.825Z,38.65
2018-04-19T11:05:40.469Z,39.81
2018-04-19T11:08:11.289Z,38.08
2018-04-19T11:10:42.343Z,38.60
2018-04-19T11:13:13.314Z,39.12
2018-04-19T11:15:44.357Z,38.24
2018-04-19T11:18:15.375Z,37.44
2018-04-19T11:20:46.387Z,37.32
2018-04-19T11:23:17.218Z,36.86
2018-04-19T11:25:48.239Z,37.51
2018-04-19T11:28:19.194Z,37.10
2018-04-19T11:30:50.223Z,36.33
2018-04-19T11:33:21.170Z,36.66
2018-04-19T11:35:52.233Z,35.99
2018-04-19T11:38:22.851Z,36.71
2018-04-19T11:40:53.076Z,35.99
2018-04-19T11:43:24.064Z,37.38
2018-04-19T11:45:55.099Z,36.90
2018-04-19T11:48:26.046Z,36.32
2018-04-19T11:50:57.054Z,36.36
2018-04-19T11:53:28.089Z,35.08
2018-04-19T11:55:59.086Z,35.58
2018-04-19T11:58:30.077Z,34.43
2018-04-19T12:01:01.166Z,33.40
2018-04-19T12:03:32.343Z,35.67
2018-04-19T12:06:02.165Z,34.42
2018-04-19T12:08:32.874Z,35.37
2018-04-19T12:11:03.697Z,33.31
2018-04-19T12:13:34.831Z,34.31
2018-04-19T12:16:05.792Z,35.42
2018-04-19T12:18:36.970Z,35.31
2018-04-19T12:21:08.195Z,35.14
2018-04-19T12:23:38.636Z,34.14
2018-04-19T12:26:09.512Z,34.11
2018-04-19T12:28:40.538Z,35.21
2018-04-19T12:31:11.224Z,34.71
2018-04-19T12:33:42.690Z,34.92
2018-04-19T12:36:14.302Z,34.88
2018-04-19T12:38:45.341Z,35.32
2018-04-19T12:41:16.384Z,34.97
2018-04-19T12:43:47.351Z,34.20
2018-04-19T12:46:18.426Z,33.06
2018-04-19T12:48:49.370Z,34.49
2018-04-19T12:51:20.106Z,35.06
2018-04-19T12:53:50.766Z,34.42
2018-04-19T12:56:21.669Z,34.82
2018-04-19T12:58:52.422Z,33.06
2018-04-19T13:01:23.270Z,33.00
2018-04-19T13:03:55.272Z,33.39
2018-04-19T13:06:25.084Z,34.47
2018-04-19T13:08:55.733Z,34.29
2018-04-19T13:11:26.318Z,33.47
2018-04-19T13:13:56.793Z,34.51
2018-04-19T13:16:27.397Z,32.69
2018-04-19T13:18:58.435Z,33.37
2018-04-19T13:21:29.495Z,32.94
2018-04-19T13:24:00.286Z,33.33
2018-04-19T13:26:31.329Z,33.45
2018-04-19T13:29:02.271Z,33.56
2018-04-19T13:31:32.907Z,33.45
2018-04-19T13:34:03.431Z,33.82
2018-04-19T13:36:34.362Z,34.97
2018-04-19T13:39:04.603Z,34.80
2018-04-19T13:41:36.406Z,34.43
2018-04-19T13:44:07.182Z,34.37
2018-04-19T13:46:38.023Z,35.10
2018-04-19T13:49:08.627Z,33.11
2018-04-19T13:51:39.378Z,32.82
2018-04-19T13:54:10.110Z,33.13
2018-04-19T13:56:41.018Z,33.37
2018-04-19T13:59:12.117Z,33.54
2018-04-19T14:01:42.872Z,34.29
2018-04-19T14:04:13.943Z,34.29
2018-04-19T14:06:45.107Z,33.46
2018-04-19T14:09:16.066Z,32.96
2018-04-19T14:11:47.706Z,32.00
2018-04-19T14:14:18.390Z,32.35
2018-04-19T14:16:48.901Z,31.90
2018-04-19T14:19:19.525Z,31.94
2018-04-19T14:21:50.706Z,31.51
2018-04-19T14:24:21.414Z,31.37
2018-04-19T14:26:52.442Z,30.69
2018-04-19T14:29:23.575Z,31.35
2018-04-19T14:31:54.250Z,30.96
2018-04-19T14:34:24.868Z,31.50
2018-04-19T14:36:55.584Z,31.28
2018-04-19T14:39:26.372Z,30.84
2018-04-19T14:41:57.290Z,30.64
2018-04-19T14:44:28.320Z,32.04
2018-04-19T14:46:59.351Z,32.03
2018-04-19T14:49:31.650Z,33.01
2018-04-19T14:52:01.639Z,32.50
2018-04-19T14:54:32.503Z,32.02
2018-04-19T14:57:03.451Z,31.35
2018-04-19T14:59:34.085Z,31.20
2018-04-19T15:02:04.913Z,31.21
2018-04-19T15:04:35.374Z,31.26
2018-04-19T15:07:06.483Z,31.62
2018-04-19T15:09:36.763Z,31.69
2018-04-19T15:12:07.543Z,31.69
2018-04-19T15:14:39.233Z,31.84
2018-04-19T15:17:09.899Z,32.18
2018-04-19T15:19:40.658Z,31.97
2018-04-19T15:22:11.787Z,31.26
2018-04-19T15:24:42.558Z,31.91
2018-04-19T15:27:12.450Z,32.15
2018-04-19T15:29:43.005Z,32.03
2018-04-19T15:32:13.793Z,32.71
2018-04-19T15:34:44.635Z,31.86
2018-04-19T15:37:15.206Z,31.81
2018-04-19T15:39:47.576Z,31.59
2018-04-19T15:42:17.983Z,32.35
2018-04-19T15:44:48.933Z,32.83
2018-04-19T15:47:19.859Z,33.63
2018-04-19T15:49:50.995Z,34.20
2018-04-19T15:52:22.226Z,33.84
2018-04-19T15:54:53.072Z,33.83
2018-04-19T15:57:24.110Z,33.72
2018-04-19T15:59:55.017Z,34.52
2018-04-19T16:02:26.160Z,34.74
2018-04-19T16:04:56.773Z,34.77
2018-04-19T16:07:27.727Z,34.50
2018-04-19T16:09:58.660Z,35.22
2018-04-19T16:12:29.792Z,35.52
2018-04-19T16:15:00.621Z,35.63
2018-04-19T16:20:56.568Z,35.54
2018-04-19T16:23:25.601Z,35.77
2018-04-19T16:25:54.536Z,35.82
2018-04-19T16:28:23.519Z,35.67
2018-04-19T16:30:52.623Z,35.56
2018-04-19T16:33:21.605Z,35.53
2018-04-19T16:35:50.566Z,35.77
2018-04-19T16:38:19.685Z,35.42
2018-04-19T16:40:48.639Z,35.54
2018-04-19T16:43:17.658Z,35.69
2018-04-19T16:45:46.695Z,35.89
2018-04-19T16:48:15.655Z,36.08
2018-04-19T16:50:44.656Z,36.16
2018-04-19T16:53:13.707Z,37.03
2018-04-19T16:55:42.699Z,36.98
2018-04-19T16:58:11.598Z,37.17
2018-04-19T17:00:40.503Z,37.49
2018-04-19T17:06:05.548Z,37.44
2018-04-19T17:08:34.640Z,37.43
2018-04-19T17:11:03.571Z,37.67
2018-04-19T17:13:32.609Z,37.80
2018-04-19T17:16:01.524Z,38.09
2018-04-19T17:18:30.461Z,38.31
2018-04-19T17:20:59.443Z,38.51
2018-04-19T17:23:28.358Z,38.63
2018-04-19T17:25:57.317Z,38.88
2018-04-19T17:28:26.319Z,39.10
2018-04-19T17:30:55.283Z,39.17
2018-04-19T17:33:45.890Z,39.38
2018-04-19T17:36:15.166Z,39.73
2018-04-19T17:38:44.294Z,39.86
2018-04-19T17:41:13.258Z,40.12
2018-04-19T17:43:43.778Z,40.50
2018-04-19T17:46:13.209Z,40.67
2018-04-19T17:48:42.163Z,40.96
2018-04-19T17:51:11.188Z,41.18
2018-04-19T17:53:40.141Z,41.43
2018-04-19T17:56:09.166Z,41.72
2018-04-19T17:58:38.517Z,42.06
2018-04-19T18:01:07.495Z,42.31
2018-04-19T18:03:36.439Z,42.51
2018-04-19T18:06:05.446Z,42.68
2018-04-19T18:08:34.380Z,43.04
2018-04-19T18:11:03.384Z,43.21
2018-04-19T18:13:32.424Z,43.29
2018-04-19T18:16:01.449Z,43.37
2018-04-19T18:18:30.906Z,43.49
2018-04-19T18:23:51.402Z,43.76
2018-04-19T18:26:20.357Z,43.75
2018-04-19T18:28:49.338Z,43.85
2018-04-19T18:31:18.359Z,43.99
2018-04-19T18:33:47.313Z,44.34
2018-04-19T18:36:16.265Z,44.62
2018-04-19T18:38:45.338Z,44.88
2018-04-19T18:41:14.307Z,45.18
2018-04-19T18:43:43.255Z,45.36
2018-04-19T18:46:34.250Z,45.67
2018-04-19T18:49:03.443Z,46.16
2018-04-19T18:51:32.450Z,46.27
2018-04-19T18:54:01.462Z,46.31
2018-04-19T18:56:30.495Z,46.40
2018-04-19T18:58:59.460Z,46.63
2018-04-19T19:01:28.435Z,46.83
2018-04-19T19:03:57.462Z,46.91
2018-04-19T19:06:26.560Z,47.20
2018-04-19T19:09:17.891Z,47.19
2018-04-19T19:11:47.275Z,47.02
2018-04-19T19:14:16.291Z,46.97
2018-04-19T19:16:45.490Z,47.06
2018-04-19T19:19:25.645Z,47.12
2018-04-19T19:21:54.626Z,47.14
2018-04-19T19:24:23.695Z,47.26
2018-04-19T19:26:52.702Z,47.38
2018-04-19T19:29:21.669Z,47.54
2018-04-19T19:31:50.630Z,47.85
2018-04-19T19:34:19.659Z,48.11
2018-04-19T19:36:48.669Z,48.19
2018-04-19T19:39:17.620Z,48.29
2018-04-19T19:41:46.477Z,48.35
2018-04-19T19:44:15.448Z,48.50
2018-04-19T19:46:44.641Z,48.59
2018-04-19T19:49:13.640Z,48.75
2018-04-19T19:51:42.582Z,48.92
2018-04-19T19:54:11.591Z,49.05
2018-04-19T19:56:40.631Z,49.21
2018-04-19T19:59:09.874Z,49.34
2018-04-19T20:01:38.721Z,49.44
2018-04-19T20:04:07.730Z,49.70
2018-04-19T20:06:37.258Z,49.73
2018-04-19T20:09:05.879Z,49.87
2018-04-19T20:11:35.561Z,50.01
2018-04-19T20:14:04.610Z,50.16
2018-04-19T20:16:33.568Z,50.40
2018-04-19T20:19:02.618Z,50.71
2018-04-19T20:21:31.687Z,50.83
2018-04-19T20:24:02.486Z,51.04
2018-04-19T20:26:33.475Z,51.37
2018-04-19T20:29:04.405Z,51.56
2018-04-19T20:31:35.106Z,51.58
2018-04-19T20:34:05.853Z,51.69
2018-04-19T20:36:36.380Z,51.97
2018-04-19T20:39:08.037Z,51.95
2018-04-19T20:41:37.777Z,52.06
2018-04-19T20:44:08.443Z,52.15
2018-04-19T20:46:39.455Z,52.24
2018-04-19T20:49:10.894Z,52.59
2018-04-19T20:51:40.615Z,52.67
2018-04-19T20:54:11.365Z,52.84
2018-04-19T20:56:42.282Z,53.08
2018-04-19T20:59:13.304Z,53.15
2018-04-19T21:01:44.258Z,53.24
2018-04-19T21:04:14.898Z,53.19
2018-04-19T21:06:45.194Z,53.35
2018-04-19T21:09:16.578Z,53.27
2018-04-19T21:11:47.294Z,53.37
2018-04-19T21:14:18.376Z,53.51
2018-04-19T21:16:48.774Z,53.58
2018-04-19T21:19:19.255Z,53.77
2018-04-19T21:21:50.197Z,54.47
2018-04-19T21:24:21.249Z,55.14
2018-04-19T21:26:52.199Z,55.58
2018-04-19T21:29:22.842Z,56.25
2018-04-19T21:31:52.748Z,56.47
2018-04-19T21:34:24.306Z,56.80
2018-04-19T21:36:55.276Z,57.15
2018-04-19T21:39:26.356Z,57.46
2018-04-19T21:41:57.345Z,57.83
2018-04-19T21:44:28.350Z,58.18
2018-04-19T21:46:59.322Z,58.40
2018-04-19T21:49:30.350Z,58.48
2018-04-19T21:52:01.325Z,58.76
2018-04-19T21:54:32.434Z,58.85
2018-04-19T21:57:03.391Z,58.66
2018-04-19T21:59:34.377Z,58.81
2018-04-19T22:02:05.238Z,58.84
2018-04-19T22:04:36.285Z,59.07
2018-04-19T22:07:07.267Z,59.69
2018-04-19T22:09:37.928Z,59.92
2018-04-19T22:12:08.646Z,60.52
2018-04-19T22:14:39.509Z,61.22
2018-04-19T22:17:09.980Z,61.43
2018-04-19T22:19:41.118Z,61.91
2018-04-19T22:22:11.747Z,62.32
2018-04-19T22:24:42.468Z,62.37
2018-04-19T22:27:13.330Z,62.37
2018-04-19T22:29:44.397Z,62.39
2018-04-19T22:32:15.302Z,62.38
2018-04-19T22:34:46.330Z,62.21
2018-04-19T22:37:17.298Z,62.37
2018-04-19T22:39:48.355Z,62.38
2018-04-19T22:42:18.901Z,62.49
2018-04-19T22:44:49.265Z,62.90
2018-04-19T22:47:20.243Z,63.38
2018-04-19T22:49:51.267Z,63.76
2018-04-19T22:52:22.235Z,64.04
2018-04-19T22:54:53.262Z,64.43
2018-04-19T22:57:24.298Z,64.02
2018-04-19T22:59:55.367Z,63.91
2018-04-19T23:02:26.325Z,63.72
2018-04-19T23:04:57.282Z,63.76
2018-04-19T23:07:28.270Z,63.78
2018-04-19T23:09:59.290Z,63.67
2018-04-19T23:12:30.106Z,63.97
2018-04-19T23:15:00.793Z,64.08
2018-04-19T23:17:31.357Z,63.86
2018-04-19T23:20:02.422Z,63.81
2018-04-19T23:22:35.545Z,63.98
2018-04-19T23:25:04.733Z,64.11
2018-04-19T23:27:34.614Z,64.06
2018-04-19T23:30:05.136Z,64.20
2018-04-19T23:32:36.232Z,64.21
2018-04-19T23:35:07.027Z,64.35
2018-04-19T23:37:37.680Z,64.41
2018-04-19T23:40:08.398Z,64.72
2018-04-19T23:42:39.389Z,64.67
2018-04-19T23:45:10.289Z,64.95
2018-04-19T23:47:41.269Z,64.87
2018-04-19T23:50:12.327Z,64.90
2018-04-19T23:52:43.236Z,65.08
2018-04-19T23:55:18.686Z,64.98
2018-04-19T23:57:47.734Z,65.29
